createdAt,value
2023-04-24T00:01:40.377Z,6.32
2023-04-24T00:04:08.204Z,5.22
2023-04-24T00:06:35.179Z,4.70
2023-04-24T00:09:02.789Z,5.35
2023-04-24T00:11:29.769Z,5.75
2023-04-24T00:13:57.775Z,6.10
2023-04-24T00:16:24.587Z,5.70
2023-04-24T00:18:53.603Z,5.88
2023-04-24T00:21:21.424Z,4.85
2023-04-24T00:23:48.851Z,6.93
2023-04-24T00:26:15.570Z,6.05
2023-04-24T00:28:42.312Z,5.65
2023-04-24T00:31:09.474Z,5.10
2023-04-24T00:33:36.267Z,5.82
2023-04-24T00:36:03.569Z,5.50
2023-04-24T00:38:30.466Z,5.35
2023-04-24T00:40:57.238Z,6.40
2023-04-24T00:43:24.036Z,7.25
2023-04-24T00:45:50.851Z,6.07
2023-04-24T00:48:17.786Z,6.95
2023-04-24T00:50:45.031Z,4.53
2023-04-24T00:53:11.901Z,7.57
2023-04-24T00:55:38.809Z,7.07
2023-04-24T00:58:06.219Z,7.03
2023-04-24T01:00:33.022Z,5.60
2023-04-24T01:03:05.481Z,5.63
2023-04-24T01:05:33.679Z,6.82
2023-04-24T01:08:00.801Z,7.72
2023-04-24T01:10:30.409Z,8.52
2023-04-24T01:12:57.565Z,6.68
2023-04-24T01:15:24.300Z,7.97
2023-04-24T01:17:51.309Z,8.25
2023-04-24T01:20:18.698Z,8.07
2023-04-24T01:22:45.633Z,7.95
2023-04-24T01:25:12.416Z,9.80
2023-04-24T01:27:39.268Z,11.98
2023-04-24T01:30:07.496Z,9.40
2023-04-24T01:32:34.469Z,11.73
2023-04-24T01:35:02.216Z,8.95
2023-04-24T01:37:29.268Z,9.50
2023-04-24T01:39:57.011Z,8.40
2023-04-24T01:42:24.162Z,8.63
2023-04-24T01:44:52.162Z,9.85
2023-04-24T01:47:18.933Z,11.30
2023-04-24T01:49:48.715Z,9.57
2023-04-24T01:52:15.581Z,11.10
2023-04-24T01:54:42.289Z,8.18
2023-04-24T01:57:09.455Z,9.63
2023-04-24T01:59:37.337Z,8.52
2023-04-24T02:02:04.520Z,8.15
2023-04-24T02:04:31.910Z,8.40
2023-04-24T02:06:58.679Z,9.45
2023-04-24T02:09:25.932Z,7.95
2023-04-24T02:11:52.692Z,9.10
2023-04-24T02:14:19.403Z,8.00
2023-04-24T02:16:46.783Z,8.82
2023-04-24T02:19:13.711Z,10.05
2023-04-24T02:21:40.499Z,7.38
2023-04-24T02:24:07.237Z,8.73
2023-04-24T02:26:34.010Z,7.65
2023-04-24T02:29:00.969Z,7.43
2023-04-24T02:31:27.757Z,8.32
2023-04-24T02:33:54.505Z,9.02
2023-04-24T02:36:21.996Z,8.95
2023-04-24T02:38:48.951Z,8.88
2023-04-24T02:41:15.722Z,8.90
2023-04-24T02:43:42.517Z,8.80
2023-04-24T02:46:09.233Z,10.13
2023-04-24T02:48:36.016Z,10.05
2023-04-24T02:51:02.765Z,9.25
2023-04-24T02:53:31.501Z,12.30
2023-04-24T02:55:58.222Z,9.15
2023-04-24T02:58:25.323Z,8.55
2023-04-24T03:00:56.804Z,8.63
2023-04-24T03:03:25.646Z,8.95
2023-04-24T03:05:53.027Z,12.38
2023-04-24T03:08:19.794Z,10.10
2023-04-24T03:10:48.138Z,9.25
2023-04-24T03:13:16.078Z,9.35
2023-04-24T03:15:42.825Z,10.63
2023-04-24T03:18:09.571Z,10.48
2023-04-24T03:20:37.930Z,10.57
2023-04-24T03:23:05.306Z,13.73
2023-04-24T03:25:32.121Z,10.18
2023-04-24T03:27:58.935Z,10.82
2023-04-24T03:30:25.745Z,9.93
2023-04-24T03:32:52.483Z,12.93
2023-04-24T03:35:19.256Z,10.00
2023-04-24T03:37:46.793Z,11.30
2023-04-24T03:40:13.511Z,14.40
2023-04-24T03:42:40.347Z,14.55
2023-04-24T03:45:08.114Z,14.43
2023-04-24T03:47:34.826Z,11.27
2023-04-24T03:50:01.918Z,14.73
2023-04-24T03:52:29.182Z,13.43
2023-04-24T03:54:56.433Z,10.48
2023-04-24T03:57:23.177Z,10.63
2023-04-24T03:59:49.905Z,13.88
2023-04-24T04:02:16.747Z,13.43
2023-04-24T04:04:43.980Z,12.10
2023-04-24T04:07:10.835Z,13.68
2023-04-24T04:09:37.729Z,9.05
2023-04-24T04:12:04.537Z,11.10
2023-04-24T04:14:31.251Z,11.18
2023-04-24T04:16:57.975Z,12.75
2023-04-24T04:19:24.836Z,12.18
2023-04-24T04:21:54.071Z,10.05
2023-04-24T04:24:25.196Z,13.32
2023-04-24T04:26:53.153Z,12.80
2023-04-24T04:29:19.981Z,13.20
2023-04-24T04:31:46.945Z,12.43
2023-04-24T04:34:14.205Z,10.77
2023-04-24T04:36:42.243Z,12.50
2023-04-24T04:39:09.250Z,9.95
2023-04-24T04:41:36.250Z,10.73
2023-04-24T04:44:05.477Z,10.05
2023-04-24T04:46:38.145Z,11.88
2023-04-24T04:49:04.980Z,9.38
2023-04-24T04:51:32.094Z,11.27
2023-04-24T04:53:58.865Z,9.85
2023-04-24T04:56:25.700Z,9.48
2023-04-24T04:58:52.405Z,8.45
2023-04-24T05:01:19.590Z,10.10
2023-04-24T05:03:46.558Z,8.80
2023-04-24T05:06:13.473Z,9.77
2023-04-24T05:08:40.742Z,9.75
2023-04-24T05:11:07.894Z,9.20
2023-04-24T05:13:39.882Z,8.98
2023-04-24T05:16:08.169Z,12.38
2023-04-24T05:18:34.984Z,10.70
2023-04-24T05:21:02.304Z,8.23
2023-04-24T05:23:29.790Z,9.13
2023-04-24T05:25:56.568Z,11.25
2023-04-24T05:28:23.273Z,9.27
2023-04-24T05:30:50.095Z,8.50
2023-04-24T05:33:16.824Z,8.35
2023-04-24T05:35:47.762Z,9.40
2023-04-24T05:38:15.346Z,7.97
2023-04-24T05:40:42.133Z,8.52
2023-04-24T05:43:08.854Z,7.95
2023-04-24T05:45:36.983Z,9.32
2023-04-24T05:48:04.527Z,7.82
2023-04-24T05:50:31.823Z,8.32
2023-04-24T05:53:02.918Z,6.82
2023-04-24T05:55:29.930Z,7.30
2023-04-24T05:57:56.675Z,7.63
2023-04-24T06:00:25.400Z,6.25
2023-04-24T06:02:53.793Z,6.45
2023-04-24T06:05:21.777Z,5.72
2023-04-24T06:07:49.155Z,6.20
2023-04-24T06:10:16.444Z,6.00
2023-04-24T06:12:43.466Z,6.15
2023-04-24T06:15:10.761Z,6.88
2023-04-24T06:17:38.001Z,6.35
2023-04-24T06:20:06.890Z,5.55
2023-04-24T06:22:34.470Z,7.32
2023-04-24T06:25:02.457Z,10.35
2023-04-24T06:27:29.788Z,6.15
2023-04-24T06:29:56.623Z,6.15
2023-04-24T06:32:25.291Z,7.68
2023-04-24T06:34:53.578Z,6.72
2023-04-24T06:37:21.501Z,6.35
2023-04-24T06:39:48.434Z,7.05
2023-04-24T06:42:15.305Z,5.53
2023-04-24T06:44:42.301Z,6.30
2023-04-24T06:47:10.862Z,5.13
2023-04-24T06:49:38.396Z,7.05
2023-04-24T06:52:05.600Z,7.63
2023-04-24T06:54:33.470Z,8.63
2023-04-24T06:57:01.672Z,6.72
2023-04-24T06:59:29.518Z,4.88
2023-04-24T07:01:56.636Z,6.70
2023-04-24T07:04:25.917Z,5.13
2023-04-24T07:06:56.922Z,4.55
2023-04-24T07:09:26.576Z,5.30
2023-04-24T07:11:54.298Z,4.63
2023-04-24T07:14:21.646Z,5.03
2023-04-24T07:16:48.481Z,5.65
2023-04-24T07:19:15.402Z,5.28
2023-04-24T07:21:42.900Z,3.97
2023-04-24T07:24:13.830Z,6.35
2023-04-24T07:26:41.427Z,4.30
2023-04-24T07:29:09.036Z,3.35
2023-04-24T07:31:36.088Z,5.18
2023-04-24T07:34:03.625Z,4.88
2023-04-24T07:36:31.017Z,4.32
2023-04-24T07:38:57.963Z,2.95
2023-04-24T07:41:25.583Z,3.35
2023-04-24T07:43:54.531Z,4.97
2023-04-24T07:46:21.885Z,3.83
2023-04-24T07:48:58.578Z,5.25
2023-04-24T07:51:39.025Z,4.10
2023-04-24T07:54:09.018Z,3.75
2023-04-24T07:56:39.907Z,5.13
2023-04-24T07:59:07.126Z,2.65
2023-04-24T08:01:34.050Z,3.47
2023-04-24T08:04:01.250Z,3.08
2023-04-24T08:06:31.415Z,2.90
2023-04-24T08:08:59.223Z,3.65
2023-04-24T08:11:29.631Z,5.57
2023-04-24T08:13:56.651Z,3.05
2023-04-24T08:16:25.130Z,2.97
2023-04-24T08:18:52.645Z,3.50
2023-04-24T08:21:21.512Z,3.47
2023-04-24T08:23:48.217Z,3.10
2023-04-24T08:26:15.356Z,3.05
2023-04-24T08:28:42.164Z,3.40
2023-04-24T08:31:08.992Z,3.50
2023-04-24T08:33:36.131Z,2.15
2023-04-24T08:36:05.559Z,2.70
2023-04-24T08:38:32.855Z,2.67
2023-04-24T08:41:01.173Z,2.53
2023-04-24T08:43:29.163Z,1.17
2023-04-24T08:45:58.048Z,1.88
2023-04-24T08:48:31.351Z,2.10
2023-04-24T08:50:59.856Z,3.22
2023-04-24T08:53:28.128Z,2.58
2023-04-24T08:55:56.626Z,5.93
2023-04-24T08:58:26.717Z,2.33
2023-04-24T09:00:56.467Z,3.55
2023-04-24T09:03:24.729Z,3.03
2023-04-24T09:05:53.019Z,2.25
2023-04-24T09:08:21.913Z,3.95
2023-04-24T09:10:51.163Z,3.13
2023-04-24T09:13:20.840Z,2.13
2023-04-24T09:15:48.069Z,4.50
2023-04-24T09:18:15.281Z,4.07
2023-04-24T09:21:03.539Z,4.20
2023-04-24T09:23:31.963Z,6.20
2023-04-24T09:26:01.428Z,3.00
2023-04-24T09:28:33.215Z,3.55
2023-04-24T09:31:08.151Z,3.38
2023-04-24T09:33:35.863Z,7.82
2023-04-24T09:36:03.581Z,3.53
2023-04-24T09:38:36.664Z,4.40
2023-04-24T09:41:05.885Z,5.47
2023-04-24T09:43:33.091Z,4.45
2023-04-24T09:46:06.959Z,3.45
2023-04-24T09:48:36.707Z,3.22
2023-04-24T09:51:05.243Z,3.60
2023-04-24T09:53:32.195Z,6.32
2023-04-24T09:56:10.183Z,4.32
2023-04-24T09:58:37.733Z,5.45
2023-04-24T10:01:04.796Z,4.90
2023-04-24T10:03:33.279Z,3.35
2023-04-24T10:06:09.484Z,3.90
2023-04-24T10:08:38.342Z,5.18
2023-04-24T10:11:05.783Z,4.72
2023-04-24T10:13:33.685Z,3.35
2023-04-24T10:16:02.039Z,3.35
2023-04-24T10:18:29.550Z,3.97
2023-04-24T10:20:57.145Z,5.28
2023-04-24T10:23:26.290Z,2.35
2023-04-24T10:25:54.257Z,2.90
2023-04-24T10:28:22.574Z,4.13
2023-04-24T10:30:51.546Z,3.97
2023-04-24T10:33:19.330Z,3.15
2023-04-24T10:35:51.340Z,2.88
2023-04-24T10:38:25.722Z,3.70
2023-04-24T10:40:52.600Z,2.42
2023-04-24T10:43:20.200Z,3.67
2023-04-24T10:46:04.188Z,4.53
2023-04-24T10:48:31.660Z,4.20
2023-04-24T10:50:59.578Z,3.72
2023-04-24T10:53:31.314Z,4.00
2023-04-24T10:56:05.768Z,2.97
2023-04-24T10:58:44.217Z,2.72
2023-04-24T11:01:30.987Z,2.53
2023-04-24T11:04:04.557Z,3.67
2023-04-24T11:06:35.909Z,2.97
2023-04-24T11:09:13.300Z,3.30
2023-04-24T11:11:47.676Z,2.70
2023-04-24T11:17:02.883Z,5.55
2023-04-24T11:19:30.096Z,2.63
2023-04-24T11:21:57.128Z,4.18
2023-04-24T11:24:38.807Z,2.45
2023-04-24T11:27:05.557Z,4.63
2023-04-24T11:29:40.757Z,2.58
2023-04-24T11:32:19.657Z,2.55
2023-04-24T11:34:55.889Z,2.63
2023-04-24T11:37:24.678Z,2.63
2023-04-24T11:39:52.859Z,4.40
2023-04-24T11:42:22.128Z,2.25
2023-04-24T11:44:50.047Z,4.10
2023-04-24T11:47:17.186Z,3.17
2023-04-24T11:49:44.760Z,3.13
2023-04-24T11:52:11.908Z,4.05
2023-04-24T11:54:38.821Z,4.15
2023-04-24T11:57:07.552Z,3.13
2023-04-24T11:59:38.801Z,3.30
2023-04-24T12:02:06.986Z,4.55
2023-04-24T12:04:41.772Z,3.35
2023-04-24T12:07:09.669Z,3.60
2023-04-24T12:09:50.222Z,3.33
2023-04-24T12:12:19.641Z,2.90
2023-04-24T12:14:59.988Z,4.28
2023-04-24T12:17:28.930Z,2.38
2023-04-24T12:20:07.155Z,2.28
2023-04-24T12:22:56.648Z,3.15
2023-04-24T12:25:25.882Z,2.83
2023-04-24T12:28:06.579Z,4.97
2023-04-24T12:30:35.539Z,3.67
2023-04-24T12:33:03.889Z,3.50
2023-04-24T12:35:36.554Z,4.15
2023-04-24T12:38:11.040Z,2.53
2023-04-24T12:40:37.775Z,4.07
2023-04-24T12:43:14.923Z,4.85
2023-04-24T12:45:41.707Z,3.88
2023-04-24T12:48:08.464Z,2.70
2023-04-24T12:50:35.509Z,3.05
2023-04-24T12:53:02.236Z,3.25
2023-04-24T12:55:29.055Z,2.97
2023-04-24T12:57:57.030Z,2.13
2023-04-24T13:00:23.812Z,2.33
2023-04-24T13:02:50.773Z,3.30
2023-04-24T13:05:18.169Z,2.63
2023-04-24T13:07:44.938Z,2.25
2023-04-24T13:10:12.137Z,1.75
2023-04-24T13:12:39.672Z,2.60
2023-04-24T13:15:08.261Z,2.50
2023-04-24T13:17:35.086Z,3.90
2023-04-24T13:20:02.409Z,2.28
2023-04-24T13:22:30.576Z,4.53
2023-04-24T13:24:58.194Z,2.63
2023-04-24T13:27:24.989Z,4.00
2023-04-24T13:29:52.131Z,4.75
2023-04-24T13:32:18.997Z,3.42
2023-04-24T13:34:45.826Z,4.85
2023-04-24T13:37:12.741Z,3.47
2023-04-24T13:39:39.496Z,3.92
2023-04-24T13:42:06.312Z,2.40
2023-04-24T13:44:33.291Z,2.53
2023-04-24T13:47:00.758Z,3.65
2023-04-24T13:49:28.095Z,2.80
2023-04-24T13:51:56.679Z,2.53
2023-04-24T13:54:26.475Z,4.95
2023-04-24T13:56:53.457Z,2.13
2023-04-24T13:59:22.184Z,2.28
2023-04-24T14:01:49.375Z,4.40
2023-04-24T14:04:17.032Z,2.65
2023-04-24T14:06:44.678Z,3.25
2023-04-24T14:09:11.574Z,2.65
2023-04-24T14:11:38.422Z,2.95
2023-04-24T14:14:06.290Z,3.10
2023-04-24T14:16:33.310Z,3.40
2023-04-24T14:19:00.868Z,3.30
2023-04-24T14:21:27.685Z,1.52
2023-04-24T14:23:55.690Z,3.67
2023-04-24T14:26:22.750Z,3.00
2023-04-24T14:28:49.698Z,3.85
2023-04-24T14:31:17.841Z,3.33
2023-04-24T14:33:45.152Z,3.97
2023-04-24T14:36:12.142Z,2.75
2023-04-24T14:38:39.061Z,2.20
2023-04-24T14:43:38.435Z,4.47
2023-04-24T14:46:05.664Z,4.38
2023-04-24T14:48:32.665Z,2.65
2023-04-24T14:51:00.723Z,3.13
2023-04-24T14:53:27.520Z,3.83
2023-04-24T14:55:54.856Z,2.03
2023-04-24T14:58:21.638Z,3.28
2023-04-24T15:00:52.817Z,3.60
2023-04-24T15:03:20.328Z,3.40
2023-04-24T15:05:47.569Z,3.92
2023-04-24T15:08:14.535Z,2.50
2023-04-24T15:10:41.557Z,1.45
2023-04-24T15:13:08.493Z,3.92
2023-04-24T15:15:35.701Z,2.60
2023-04-24T15:18:03.671Z,2.63
2023-04-24T15:20:31.088Z,2.00
2023-04-24T15:23:00.214Z,3.40
2023-04-24T15:25:27.294Z,2.08
2023-04-24T15:27:54.055Z,12.43
2023-04-24T15:30:20.939Z,4.05
2023-04-24T15:32:47.790Z,3.17
2023-04-24T15:35:16.980Z,3.67
2023-04-24T15:37:44.109Z,2.92
2023-04-24T15:40:14.106Z,3.17
2023-04-24T15:42:42.238Z,3.17
2023-04-24T15:45:10.871Z,3.20
2023-04-24T15:47:37.954Z,3.08
2023-04-24T15:50:05.628Z,2.83
2023-04-24T15:52:33.044Z,3.30
2023-04-24T15:55:00.052Z,3.47
2023-04-24T15:57:27.062Z,2.95
2023-04-24T15:59:53.845Z,2.85
2023-04-24T16:02:21.243Z,2.95
2023-04-24T16:04:49.734Z,3.50
2023-04-24T16:07:20.788Z,2.97
2023-04-24T16:09:47.559Z,2.50
2023-04-24T16:12:14.807Z,2.30
2023-04-24T16:14:42.122Z,2.97
2023-04-24T16:17:09.287Z,3.05
2023-04-24T16:19:36.203Z,3.30
2023-04-24T16:22:05.147Z,3.67
2023-04-24T16:24:32.424Z,4.07
2023-04-24T16:26:59.156Z,2.90
2023-04-24T16:29:26.051Z,3.35
2023-04-24T16:31:52.900Z,3.88
2023-04-24T16:34:20.112Z,4.15
2023-04-24T16:36:47.823Z,3.55
2023-04-24T16:39:15.269Z,3.72
2023-04-24T16:41:42.094Z,3.97
2023-04-24T16:44:09.294Z,4.97
2023-04-24T16:46:36.060Z,2.38
2023-04-24T16:49:02.824Z,3.30
2023-04-24T16:51:30.453Z,2.70
2023-04-24T16:53:57.278Z,4.32
2023-04-24T16:56:24.295Z,5.00
2023-04-24T16:58:51.268Z,2.50
2023-04-24T17:01:18.386Z,4.68
2023-04-24T17:03:45.675Z,2.85
2023-04-24T17:06:12.708Z,2.72
2023-04-24T17:08:39.730Z,3.13
2023-04-24T17:11:06.894Z,2.13
2023-04-24T17:13:33.919Z,2.67
2023-04-24T17:16:01.405Z,2.60
2023-04-24T17:18:29.138Z,6.57
2023-04-24T17:20:56.058Z,3.08
2023-04-24T17:23:23.687Z,4.63
2023-04-24T17:25:50.586Z,4.38
2023-04-24T17:28:35.576Z,3.28
2023-04-24T17:31:02.753Z,3.75
2023-04-24T17:33:30.689Z,3.72
2023-04-24T17:35:58.328Z,2.88
2023-04-24T17:38:25.202Z,3.67
2023-04-24T17:40:54.927Z,3.55
2023-04-24T17:43:22.837Z,6.07
2023-04-24T17:45:51.219Z,2.55
2023-04-24T17:48:21.080Z,3.10
2023-04-24T17:50:48.301Z,3.35
2023-04-24T17:53:15.868Z,3.63
2023-04-24T17:55:43.647Z,4.05
2023-04-24T17:58:11.069Z,3.10
2023-04-24T18:00:38.563Z,4.22
2023-04-24T18:03:07.037Z,4.20
2023-04-24T18:05:35.829Z,3.83
2023-04-24T18:08:03.393Z,3.13
2023-04-24T18:10:31.903Z,4.00
2023-04-24T18:12:59.390Z,3.92
2023-04-24T18:15:27.036Z,4.35
2023-04-24T18:17:53.857Z,2.97
2023-04-24T18:20:21.012Z,4.00
2023-04-24T18:22:48.141Z,4.00
2023-04-24T18:25:21.084Z,5.47
2023-04-24T18:27:49.060Z,4.57
2023-04-24T18:30:15.995Z,5.57
2023-04-24T18:32:42.881Z,4.88
2023-04-24T18:35:10.386Z,3.90
2023-04-24T18:37:37.107Z,4.72
2023-04-24T18:40:04.031Z,4.97
2023-04-24T18:42:30.990Z,6.38
2023-04-24T18:45:01.582Z,5.85
2023-04-24T18:47:29.307Z,5.25
2023-04-24T18:49:56.267Z,5.57
2023-04-24T18:52:24.895Z,4.20
2023-04-24T18:54:52.412Z,5.00
2023-04-24T18:57:19.464Z,6.10
2023-04-24T18:59:46.147Z,4.40
2023-04-24T19:02:13.143Z,5.40
2023-04-24T19:04:39.928Z,6.57
2023-04-24T19:07:07.181Z,5.60
2023-04-24T19:09:33.927Z,5.13
2023-04-24T19:12:01.965Z,6.20
2023-04-24T19:14:29.046Z,5.82
2023-04-24T19:16:55.933Z,6.43
2023-04-24T19:19:23.777Z,5.03
2023-04-24T19:21:50.652Z,7.05
2023-04-24T19:24:19.022Z,5.75
2023-04-24T19:26:46.223Z,4.57
2023-04-24T19:29:13.024Z,9.30
2023-04-24T19:31:40.189Z,8.00
2023-04-24T19:34:06.996Z,7.22
2023-04-24T19:36:33.875Z,6.07
2023-04-24T19:39:00.909Z,5.45
2023-04-24T19:41:27.936Z,4.95
2023-04-24T19:43:54.677Z,6.50
2023-04-24T19:46:21.549Z,5.57
2023-04-24T19:48:48.639Z,5.90
2023-04-24T19:51:15.654Z,5.50
2023-04-24T19:53:44.109Z,7.93
2023-04-24T19:56:10.865Z,5.82
2023-04-24T19:58:37.770Z,8.07
2023-04-24T20:01:05.896Z,6.60
2023-04-24T20:03:34.110Z,6.07
2023-04-24T20:06:01.416Z,6.13
2023-04-24T20:08:28.474Z,6.38
2023-04-24T20:10:57.613Z,6.50
2023-04-24T20:13:28.122Z,6.20
2023-04-24T20:15:55.065Z,6.13
2023-04-24T20:18:21.977Z,7.72
2023-04-24T20:20:48.982Z,6.32
2023-04-24T20:23:15.851Z,7.97
2023-04-24T20:25:42.901Z,7.18
2023-04-24T20:28:09.640Z,5.47
2023-04-24T20:30:38.002Z,6.03
2023-04-24T20:33:04.958Z,7.25
2023-04-24T20:35:31.928Z,5.32
2023-04-24T20:37:59.561Z,9.15
2023-04-24T20:40:29.819Z,3.92
2023-04-24T20:42:58.321Z,5.50
2023-04-24T20:45:25.760Z,6.30
2023-04-24T20:47:52.689Z,7.15
2023-04-24T20:50:20.596Z,5.45
2023-04-24T20:52:47.895Z,7.65
2023-04-24T20:55:15.324Z,5.28
2023-04-24T20:57:42.298Z,6.68
2023-04-24T21:00:10.745Z,5.30
2023-04-24T21:02:37.604Z,6.38
2023-04-24T21:05:04.732Z,6.20
2023-04-24T21:07:32.886Z,5.88
2023-04-24T21:09:59.660Z,5.25
2023-04-24T21:12:26.409Z,6.13
2023-04-24T21:14:53.199Z,4.90
2023-04-24T21:17:19.992Z,6.75
2023-04-24T21:19:46.992Z,4.68
2023-04-24T21:22:14.439Z,5.70
2023-04-24T21:24:41.298Z,5.72
2023-04-24T21:27:09.091Z,7.03
2023-04-24T21:29:35.920Z,5.30
2023-04-24T21:32:03.474Z,7.00
2023-04-24T21:34:30.658Z,7.25
2023-04-24T21:36:57.395Z,5.95
2023-04-24T21:39:24.705Z,5.75
2023-04-24T21:41:52.065Z,5.65
2023-04-24T21:44:19.006Z,5.03
2023-04-24T21:46:46.080Z,5.97
2023-04-24T21:49:12.869Z,6.13
2023-04-24T21:51:39.609Z,6.95
2023-04-24T21:54:06.379Z,6.47
2023-04-24T21:56:33.204Z,6.75
2023-04-24T21:59:00.511Z,5.70
2023-04-24T22:01:27.282Z,6.13
2023-04-24T22:03:54.367Z,7.25
2023-04-24T22:06:21.459Z,7.63
2023-04-24T22:08:48.253Z,7.50
2023-04-24T22:11:23.839Z,6.78
2023-04-24T22:13:53.366Z,9.88
2023-04-24T22:16:22.645Z,6.72
2023-04-24T22:18:49.822Z,12.00
2023-04-24T22:21:16.583Z,6.78
2023-04-24T22:23:43.354Z,11.07
2023-04-24T22:26:10.164Z,8.23
2023-04-24T22:28:36.892Z,8.98
2023-04-24T22:31:03.949Z,9.85
2023-04-24T22:33:30.745Z,10.10
2023-04-24T22:35:57.477Z,6.55
2023-04-24T22:38:24.984Z,7.95
2023-04-24T22:40:51.733Z,7.00
2023-04-24T22:43:18.849Z,7.25
2023-04-24T22:45:45.751Z,9.45
2023-04-24T22:48:12.474Z,7.75
2023-04-24T22:50:39.300Z,7.68
2023-04-24T22:53:06.204Z,7.85
2023-04-24T22:55:32.952Z,9.40
2023-04-24T22:58:00.725Z,12.35
2023-04-24T23:00:27.690Z,8.48
2023-04-24T23:02:54.643Z,7.65
2023-04-24T23:05:22.369Z,11.43
2023-04-24T23:07:49.129Z,8.75
2023-04-24T23:10:16.052Z,8.00
2023-04-24T23:12:43.660Z,6.30
2023-04-24T23:15:11.889Z,6.10
2023-04-24T23:17:38.994Z,6.35
2023-04-24T23:20:06.506Z,8.05
2023-04-24T23:22:33.712Z,11.30
2023-04-24T23:25:01.133Z,6.20
2023-04-24T23:27:27.919Z,7.88
2023-04-24T23:29:54.621Z,6.63
2023-04-24T23:32:21.540Z,6.00
2023-04-24T23:34:48.479Z,6.22
2023-04-24T23:37:17.315Z,8.13
2023-04-24T23:39:45.807Z,10.98
2023-04-24T23:42:12.599Z,6.93
2023-04-24T23:44:39.295Z,8.48
2023-04-24T23:47:06.100Z,7.53
2023-04-24T23:49:32.903Z,6.55
2023-04-24T23:51:59.648Z,7.43
2023-04-24T23:54:26.489Z,8.52
2023-04-24T23:56:53.257Z,8.35
2023-04-24T23:59:21.562Z,6.03
